createdAt,value
2024-02-28T00:00:25.272Z,10.00
2024-02-28T00:02:51.575Z,10.00
2024-02-28T00:05:17.920Z,9.80
2024-02-28T00:07:44.951Z,10.15
2024-02-28T00:10:11.359Z,10.45
2024-02-28T00:12:37.726Z,10.50
2024-02-28T00:15:06.265Z,10.27
2024-02-28T00:17:32.602Z,9.93
2024-02-28T00:19:59.068Z,10.55
2024-02-28T00:22:25.781Z,9.82
2024-02-28T00:24:52.290Z,10.00
2024-02-28T00:27:18.872Z,10.50
2024-02-28T00:29:45.198Z,10.07
2024-02-28T00:32:11.567Z,10.45
2024-02-28T00:34:37.919Z,10.40
2024-02-28T00:37:07.338Z,10.10
2024-02-28T00:39:33.638Z,9.93
2024-02-28T00:42:00.285Z,10.38
2024-02-28T00:44:26.824Z,9.43
2024-02-28T00:46:53.284Z,10.20
2024-02-28T00:49:19.854Z,10.25
2024-02-28T00:51:47.215Z,10.02
2024-02-28T00:54:13.716Z,9.90
2024-02-28T00:56:40.113Z,9.65
2024-02-28T00:59:07.694Z,9.18
2024-02-28T01:01:34.132Z,8.77
2024-02-28T01:04:00.566Z,9.05
2024-02-28T01:06:26.934Z,8.75
2024-02-28T01:08:53.268Z,8.98
2024-02-28T01:11:19.646Z,8.57
2024-02-28T01:13:46.106Z,9.20
2024-02-28T01:16:12.490Z,8.05
2024-02-28T01:18:38.955Z,8.60
2024-02-28T01:21:05.383Z,8.75
2024-02-28T01:23:32.415Z,9.10
2024-02-28T01:25:58.803Z,8.50
2024-02-28T01:28:25.177Z,8.48
2024-02-28T01:30:51.763Z,8.30
2024-02-28T01:33:18.286Z,8.32
2024-02-28T01:35:44.736Z,8.32
2024-02-28T01:38:11.109Z,8.38
2024-02-28T01:40:37.487Z,8.73
2024-02-28T01:43:10.122Z,8.10
2024-02-28T01:45:36.637Z,8.00
2024-02-28T01:48:05.896Z,8.15
2024-02-28T01:50:32.892Z,8.98
2024-02-28T01:52:59.637Z,7.90
2024-02-28T01:55:29.696Z,7.53
2024-02-28T01:57:56.614Z,8.48
2024-02-28T02:00:23.966Z,8.10
2024-02-28T02:02:50.286Z,8.20
2024-02-28T02:05:17.280Z,9.50
2024-02-28T02:07:44.033Z,8.77
2024-02-28T02:10:13.419Z,9.15
2024-02-28T02:12:39.961Z,8.38
2024-02-28T02:15:06.499Z,8.95
2024-02-28T02:17:33.011Z,8.80
2024-02-28T02:19:59.479Z,9.88
2024-02-28T02:22:28.418Z,10.13
2024-02-28T02:24:54.870Z,9.23
2024-02-28T02:27:21.400Z,9.77
2024-02-28T02:29:47.786Z,10.32
2024-02-28T02:32:14.086Z,9.23
2024-02-28T02:34:40.388Z,9.93
2024-02-28T02:37:09.765Z,9.52
2024-02-28T02:39:36.183Z,9.32
2024-02-28T02:42:02.554Z,9.55
2024-02-28T02:44:29.040Z,8.98
2024-02-28T02:46:55.487Z,9.50
2024-02-28T02:49:22.235Z,9.25
2024-02-28T02:51:48.834Z,9.45
2024-02-28T02:54:15.272Z,10.20
2024-02-28T02:56:44.911Z,11.27
2024-02-28T02:59:12.361Z,10.02
2024-02-28T03:01:39.199Z,9.90
2024-02-28T03:04:05.600Z,9.65
2024-02-28T03:06:35.344Z,10.23
2024-02-28T03:09:01.915Z,9.65
2024-02-28T03:11:28.443Z,10.25
2024-02-28T03:13:55.071Z,10.30
2024-02-28T03:16:21.493Z,10.15
2024-02-28T03:18:47.854Z,9.40
2024-02-28T03:21:14.638Z,9.13
2024-02-28T03:23:41.043Z,9.07
2024-02-28T03:26:07.339Z,9.77
2024-02-28T03:28:33.803Z,8.57
2024-02-28T03:31:00.211Z,9.00
2024-02-28T03:33:26.576Z,9.25
2024-02-28T03:35:52.930Z,9.10
2024-02-28T03:38:19.318Z,9.05
2024-02-28T03:40:45.631Z,9.30
2024-02-28T03:43:13.925Z,8.88
2024-02-28T03:45:40.738Z,8.68
2024-02-28T03:48:07.512Z,8.48
2024-02-28T03:50:33.971Z,8.35
2024-02-28T03:53:00.304Z,8.02
2024-02-28T03:55:26.683Z,7.93
2024-02-28T03:57:53.542Z,8.38
2024-02-28T04:00:20.245Z,8.57
2024-02-28T04:02:46.681Z,8.80
2024-02-28T04:05:13.114Z,8.93
2024-02-28T04:07:39.504Z,8.75
2024-02-28T04:10:06.474Z,8.13
2024-02-28T04:12:33.031Z,8.57
2024-02-28T04:14:59.592Z,8.93
2024-02-28T04:17:26.172Z,8.32
2024-02-28T04:19:52.748Z,9.13
2024-02-28T04:22:19.121Z,9.43
2024-02-28T04:24:45.495Z,9.23
2024-02-28T04:27:12.797Z,9.00
2024-02-28T04:29:39.491Z,8.82
2024-02-28T04:32:05.966Z,8.80
2024-02-28T04:34:32.362Z,8.80
2024-02-28T04:36:58.723Z,9.77
2024-02-28T04:39:25.171Z,9.35
2024-02-28T04:41:51.625Z,9.32
2024-02-28T04:44:17.951Z,8.68
2024-02-28T04:46:44.454Z,9.43
2024-02-28T04:49:10.950Z,8.70
2024-02-28T04:51:37.397Z,9.35
2024-02-28T04:54:03.874Z,8.25
2024-02-28T04:56:30.270Z,9.30
2024-02-28T04:58:56.668Z,9.07
2024-02-28T05:01:23.827Z,9.38
2024-02-28T05:03:50.410Z,8.88
2024-02-28T05:06:17.438Z,8.90
2024-02-28T05:08:43.942Z,9.75
2024-02-28T05:11:10.432Z,9.48
2024-02-28T05:13:36.951Z,9.15
2024-02-28T05:16:03.793Z,8.60
2024-02-28T05:18:30.354Z,8.98
2024-02-28T05:20:56.735Z,9.35
2024-02-28T05:23:24.292Z,8.65
2024-02-28T05:25:50.793Z,8.45
2024-02-28T05:28:17.194Z,8.30
2024-02-28T05:30:46.915Z,8.57
2024-02-28T05:33:15.249Z,8.82
2024-02-28T05:35:42.009Z,9.55
2024-02-28T05:38:08.370Z,9.35
2024-02-28T05:40:35.191Z,8.88
2024-02-28T05:43:03.814Z,8.70
2024-02-28T05:45:30.323Z,8.80
2024-02-28T05:47:56.708Z,9.48
2024-02-28T05:50:23.091Z,9.25
2024-02-28T05:52:49.672Z,9.07
2024-02-28T05:55:16.088Z,9.25
2024-02-28T05:57:42.889Z,9.05
2024-02-28T06:00:11.348Z,9.68
2024-02-28T06:02:38.387Z,8.77
2024-02-28T06:05:05.205Z,8.55
2024-02-28T06:07:31.849Z,9.27
2024-02-28T06:09:58.489Z,9.02
2024-02-28T06:12:25.338Z,9.10
2024-02-28T06:14:51.850Z,8.68
2024-02-28T06:17:18.301Z,8.85
2024-02-28T06:19:44.708Z,8.65
2024-02-28T06:22:11.079Z,8.65
2024-02-28T06:24:37.675Z,8.30
2024-02-28T06:27:13.233Z,8.65
2024-02-28T06:29:42.737Z,9.10
2024-02-28T06:32:09.287Z,8.63
2024-02-28T06:34:35.854Z,7.68
2024-02-28T06:37:02.596Z,7.40
2024-02-28T06:39:29.194Z,7.78
2024-02-28T06:41:55.675Z,8.43
2024-02-28T06:44:22.173Z,7.80
2024-02-28T06:46:48.968Z,8.35
2024-02-28T06:49:15.447Z,8.07
2024-02-28T06:51:41.916Z,7.85
2024-02-28T06:54:08.409Z,8.73
2024-02-28T06:56:34.877Z,8.57
2024-02-28T06:59:01.591Z,9.55
2024-02-28T07:01:28.172Z,9.48
2024-02-28T07:03:54.803Z,8.82
2024-02-28T07:06:21.320Z,9.95
2024-02-28T07:08:47.777Z,9.48
2024-02-28T07:11:14.735Z,9.77
2024-02-28T07:13:41.425Z,10.35
2024-02-28T07:16:07.922Z,9.85
2024-02-28T07:18:34.660Z,9.35
2024-02-28T07:21:01.656Z,10.20
2024-02-28T07:23:28.142Z,8.35
2024-02-28T07:25:54.532Z,9.00
2024-02-28T07:28:21.008Z,9.40
2024-02-28T07:30:49.315Z,9.80
2024-02-28T07:33:16.052Z,10.32
2024-02-28T07:35:53.243Z,10.13
2024-02-28T07:38:22.026Z,10.27
2024-02-28T07:40:51.523Z,10.40
2024-02-28T07:43:17.975Z,11.27
2024-02-28T07:45:44.609Z,11.15
2024-02-28T07:48:11.103Z,11.30
2024-02-28T07:50:39.147Z,10.48
2024-02-28T07:53:05.560Z,10.68
2024-02-28T07:55:31.955Z,11.38
2024-02-28T07:57:58.416Z,10.90
2024-02-28T08:00:26.433Z,10.07
2024-02-28T08:02:52.844Z,10.38
2024-02-28T08:05:19.361Z,10.15
2024-02-28T08:07:45.798Z,10.18
2024-02-28T08:10:12.910Z,10.18
2024-02-28T08:12:39.298Z,9.43
2024-02-28T08:15:06.555Z,9.85
2024-02-28T08:17:32.990Z,11.13
2024-02-28T08:19:59.484Z,11.63
2024-02-28T08:22:26.396Z,11.68
2024-02-28T08:24:53.225Z,10.40
2024-02-28T08:27:20.126Z,10.23
2024-02-28T08:29:47.076Z,10.43
2024-02-28T08:32:14.223Z,10.25
2024-02-28T08:34:44.379Z,11.23
2024-02-28T08:37:10.831Z,11.13
2024-02-28T08:39:37.208Z,11.50
2024-02-28T08:42:03.800Z,11.38
2024-02-28T08:44:30.163Z,12.65
2024-02-28T08:46:56.547Z,12.27
2024-02-28T08:49:22.941Z,12.18
2024-02-28T08:51:50.379Z,13.02
2024-02-28T08:54:17.020Z,12.18
2024-02-28T08:56:50.117Z,13.00
2024-02-28T08:59:23.183Z,13.82
2024-02-28T09:01:49.972Z,14.07
2024-02-28T09:04:18.828Z,14.13
2024-02-28T09:06:45.234Z,13.80
2024-02-28T09:09:11.645Z,15.43
2024-02-28T09:11:38.068Z,14.82
2024-02-28T09:14:04.887Z,14.27
2024-02-28T09:16:31.307Z,15.20
2024-02-28T09:18:57.766Z,16.30
2024-02-28T09:21:24.262Z,15.55
2024-02-28T09:23:50.636Z,14.95
2024-02-28T09:26:17.033Z,15.55
2024-02-28T09:28:43.419Z,15.10
2024-02-28T09:31:10.197Z,15.55
2024-02-28T09:33:37.710Z,15.10
2024-02-28T09:36:04.774Z,14.45
2024-02-28T09:38:33.500Z,15.43
2024-02-28T09:41:00.177Z,15.07
2024-02-28T09:43:29.924Z,15.57
2024-02-28T09:45:59.168Z,15.93
2024-02-28T09:48:29.036Z,16.42
2024-02-28T09:50:56.858Z,17.15
2024-02-28T09:53:23.294Z,15.68
2024-02-28T09:55:50.976Z,17.73
2024-02-28T09:58:18.850Z,16.98
2024-02-28T10:00:46.150Z,17.45
2024-02-28T10:03:19.704Z,17.85
2024-02-28T10:05:47.261Z,18.10
2024-02-28T10:08:15.196Z,17.50
2024-02-28T10:10:48.657Z,19.23
2024-02-28T10:13:18.546Z,18.25
2024-02-28T10:15:45.517Z,17.48
2024-02-28T10:18:12.089Z,18.60
2024-02-28T10:20:39.519Z,18.17
2024-02-28T10:23:06.859Z,16.63
2024-02-28T10:25:39.128Z,17.48
2024-02-28T10:28:08.261Z,18.05
2024-02-28T10:30:39.408Z,17.10
2024-02-28T10:33:05.813Z,16.35
2024-02-28T10:35:32.661Z,15.73
2024-02-28T10:37:59.897Z,16.13
2024-02-28T10:40:26.499Z,14.10
2024-02-28T10:42:52.931Z,14.52
2024-02-28T10:45:29.956Z,15.18
2024-02-28T10:48:07.060Z,14.38
2024-02-28T10:50:33.648Z,14.43
2024-02-28T10:53:04.023Z,14.45
2024-02-28T10:55:40.633Z,14.43
2024-02-28T10:58:08.759Z,15.02
2024-02-28T11:00:36.281Z,14.65
2024-02-28T11:03:04.664Z,15.23
2024-02-28T11:05:39.971Z,14.70
2024-02-28T11:08:09.223Z,14.40
2024-02-28T11:10:35.711Z,15.27
2024-02-28T11:13:02.344Z,14.13
2024-02-28T11:15:28.954Z,13.55
2024-02-28T11:17:55.705Z,14.18
2024-02-28T11:20:23.744Z,13.90
2024-02-28T11:22:57.638Z,13.93
2024-02-28T11:25:24.280Z,14.60
2024-02-28T11:27:51.221Z,14.63
2024-02-28T11:30:18.344Z,13.63
2024-02-28T11:32:45.348Z,13.32
2024-02-28T11:35:13.247Z,12.85
2024-02-28T11:37:40.303Z,13.75
2024-02-28T11:40:11.076Z,13.13
2024-02-28T11:42:38.831Z,13.65
2024-02-28T11:45:06.484Z,13.98
2024-02-28T11:47:34.133Z,13.48
2024-02-28T11:50:02.614Z,13.13
2024-02-28T11:52:31.270Z,13.32
2024-02-28T11:54:57.880Z,12.25
2024-02-28T11:57:24.415Z,12.65
2024-02-28T11:59:52.163Z,13.02
2024-02-28T12:02:18.691Z,13.88
2024-02-28T12:04:46.061Z,12.77
2024-02-28T12:07:13.017Z,12.52
2024-02-28T12:09:43.161Z,12.88
2024-02-28T12:12:09.879Z,13.15
2024-02-28T12:14:44.887Z,12.48
2024-02-28T12:17:11.357Z,11.70
2024-02-28T12:19:37.713Z,12.05
2024-02-28T12:22:14.035Z,12.20
2024-02-28T12:24:40.709Z,11.57
2024-02-28T12:27:07.196Z,11.07
2024-02-28T12:29:33.649Z,10.95
2024-02-28T12:32:00.096Z,9.95
2024-02-28T12:34:28.418Z,10.32
2024-02-28T12:36:55.222Z,9.70
2024-02-28T12:39:21.682Z,9.68
2024-02-28T12:41:48.337Z,9.65
2024-02-28T12:44:14.739Z,9.63
2024-02-28T12:46:41.395Z,9.20
2024-02-28T12:49:07.842Z,8.93
2024-02-28T12:51:38.640Z,8.82
2024-02-28T12:54:05.236Z,8.98
2024-02-28T12:56:31.643Z,8.73
2024-02-28T12:58:58.032Z,8.80
2024-02-28T13:01:24.517Z,8.45
2024-02-28T13:03:51.344Z,8.38
2024-02-28T13:06:17.687Z,8.00
2024-02-28T13:08:44.957Z,8.38
2024-02-28T13:11:11.399Z,8.45
2024-02-28T13:13:37.804Z,8.02
2024-02-28T13:16:04.995Z,7.68
2024-02-28T13:18:31.554Z,8.00
2024-02-28T13:20:57.913Z,7.78
2024-02-28T13:23:24.528Z,7.63
2024-02-28T13:25:51.016Z,7.30
2024-02-28T13:28:17.380Z,7.13
2024-02-28T13:30:43.905Z,6.82
2024-02-28T13:33:10.300Z,6.72
2024-02-28T13:35:38.949Z,6.60
2024-02-28T13:38:05.889Z,6.07
2024-02-28T13:40:32.200Z,5.65
2024-02-28T13:42:58.819Z,6.90
2024-02-28T13:45:25.188Z,5.78
2024-02-28T13:47:51.601Z,5.60
2024-02-28T13:50:17.983Z,5.95
2024-02-28T13:52:44.423Z,6.20
2024-02-28T13:55:11.148Z,6.07
2024-02-28T13:57:37.607Z,5.95
2024-02-28T14:00:07.723Z,6.07
2024-02-28T14:02:34.511Z,5.60
2024-02-28T14:05:01.777Z,5.95
2024-02-28T14:07:28.099Z,5.07
2024-02-28T14:09:54.494Z,5.28
2024-02-28T14:12:21.009Z,5.28
2024-02-28T14:14:47.405Z,5.55
2024-02-28T14:17:13.787Z,5.10
2024-02-28T14:19:40.203Z,5.55
2024-02-28T14:22:07.676Z,4.72
2024-02-28T14:24:34.151Z,5.75
2024-02-28T14:27:00.533Z,4.63
2024-02-28T14:29:27.493Z,4.60
2024-02-28T14:31:53.896Z,4.38
2024-02-28T14:34:20.230Z,4.53
2024-02-28T14:36:46.643Z,4.28
2024-02-28T14:39:16.615Z,3.95
2024-02-28T14:41:44.879Z,3.63
2024-02-28T14:44:11.933Z,3.67
2024-02-28T14:46:38.278Z,3.67
2024-02-28T14:49:07.807Z,3.33
2024-02-28T14:51:34.530Z,3.20
2024-02-28T14:54:01.097Z,2.90
2024-02-28T14:56:29.065Z,2.30
2024-02-28T14:58:56.407Z,2.40
2024-02-28T15:01:23.510Z,2.25
2024-02-28T15:03:50.323Z,2.10
2024-02-28T15:06:16.934Z,2.13
2024-02-28T15:08:43.902Z,1.92
2024-02-28T15:11:10.477Z,2.03
2024-02-28T15:13:37.142Z,1.90
2024-02-28T15:16:06.122Z,1.70
2024-02-28T15:18:32.582Z,1.50
2024-02-28T15:21:01.417Z,1.50
2024-02-28T15:23:31.822Z,1.55
2024-02-28T15:25:59.020Z,1.70
2024-02-28T15:28:28.065Z,1.42
2024-02-28T15:30:54.926Z,1.77
2024-02-28T15:33:21.451Z,1.10
2024-02-28T15:35:47.883Z,1.30
2024-02-28T15:38:14.336Z,1.00
2024-02-28T15:40:41.850Z,1.40
2024-02-28T15:43:08.770Z,1.00
2024-02-28T15:45:35.263Z,1.20
2024-02-28T15:48:02.578Z,1.20
2024-02-28T15:50:29.113Z,1.27
2024-02-28T15:52:55.509Z,1.20
2024-02-28T15:55:23.070Z,1.17
2024-02-28T15:57:49.453Z,1.10
2024-02-28T16:00:16.243Z,1.13
2024-02-28T16:02:42.743Z,1.00
2024-02-28T16:05:09.099Z,1.15
2024-02-28T16:07:35.545Z,1.00
2024-02-28T16:10:02.308Z,1.20
2024-02-28T16:12:28.884Z,1.08
2024-02-28T16:14:55.420Z,1.13
2024-02-28T16:17:22.305Z,0.90
2024-02-28T16:19:48.739Z,1.00
2024-02-28T16:22:15.249Z,0.90
2024-02-28T16:24:41.715Z,1.08
2024-02-28T16:27:08.221Z,1.20
2024-02-28T16:29:34.580Z,1.20
2024-02-28T16:32:00.939Z,1.10
2024-02-28T16:34:27.670Z,1.67
2024-02-28T16:36:54.105Z,1.30
2024-02-28T16:39:22.212Z,1.35
2024-02-28T16:41:48.796Z,1.70
2024-02-28T16:44:15.358Z,1.90
2024-02-28T16:46:41.708Z,2.05
2024-02-28T16:49:08.177Z,1.63
2024-02-28T16:51:35.202Z,1.60
2024-02-28T16:54:01.806Z,2.13
2024-02-28T16:56:28.290Z,2.20
2024-02-28T16:58:55.390Z,2.10
2024-02-28T17:01:25.478Z,2.42
2024-02-28T17:03:52.246Z,2.08
2024-02-28T17:06:18.704Z,2.42
2024-02-28T17:08:45.295Z,2.40
2024-02-28T17:11:13.025Z,2.40
2024-02-28T17:13:39.722Z,2.28
2024-02-28T17:16:06.171Z,2.55
2024-02-28T17:18:33.737Z,2.30
2024-02-28T17:21:02.099Z,2.60
2024-02-28T17:23:28.707Z,2.53
2024-02-28T17:25:55.151Z,2.72
2024-02-28T17:28:21.566Z,2.67
2024-02-28T17:30:48.362Z,3.08
2024-02-28T17:33:14.808Z,2.88
2024-02-28T17:35:42.779Z,2.85
2024-02-28T17:38:09.246Z,2.92
2024-02-28T17:40:35.601Z,2.78
2024-02-28T17:43:02.189Z,2.83
2024-02-28T17:45:28.603Z,3.20
2024-02-28T17:47:54.957Z,3.03
2024-02-28T17:50:21.509Z,3.03
2024-02-28T17:52:48.540Z,3.30
2024-02-28T17:55:16.010Z,3.13
2024-02-28T17:57:42.424Z,2.97
2024-02-28T18:00:13.543Z,3.67
2024-02-28T18:02:40.344Z,3.13
2024-02-28T18:05:06.930Z,3.35
2024-02-28T18:07:33.274Z,3.00
2024-02-28T18:09:59.651Z,3.03
2024-02-28T18:12:26.598Z,2.80
2024-02-28T18:14:57.328Z,3.50
2024-02-28T18:17:23.683Z,3.35
2024-02-28T18:19:50.074Z,3.53
2024-02-28T18:22:16.717Z,3.50
2024-02-28T18:24:43.197Z,3.08
2024-02-28T18:27:12.872Z,3.03
2024-02-28T18:29:39.387Z,3.30
2024-02-28T18:32:05.963Z,3.47
2024-02-28T18:34:32.463Z,3.55
2024-02-28T18:36:58.862Z,3.22
2024-02-28T18:39:28.826Z,2.95
2024-02-28T18:41:55.195Z,3.75
2024-02-28T18:44:21.652Z,3.08
2024-02-28T18:46:48.115Z,3.30
2024-02-28T18:49:14.964Z,2.90
2024-02-28T18:51:42.269Z,2.90
2024-02-28T18:54:09.178Z,3.50
2024-02-28T18:56:35.631Z,3.45
2024-02-28T18:59:02.008Z,2.80
2024-02-28T19:01:28.515Z,4.40
2024-02-28T19:03:56.687Z,3.30
2024-02-28T19:06:24.501Z,3.28
2024-02-28T19:08:51.162Z,3.10
2024-02-28T19:11:17.823Z,3.33
2024-02-28T19:13:44.091Z,3.20
2024-02-28T19:16:10.441Z,3.47
2024-02-28T19:18:41.001Z,3.47
2024-02-28T19:21:08.600Z,3.92
2024-02-28T19:23:35.212Z,4.00
2024-02-28T19:26:01.586Z,4.28
2024-02-28T19:28:29.041Z,3.90
2024-02-28T19:30:56.701Z,4.00
2024-02-28T19:33:24.915Z,3.85
2024-02-28T19:35:52.885Z,4.40
2024-02-28T19:38:20.672Z,4.28
2024-02-28T19:40:47.122Z,3.55
2024-02-28T19:43:13.656Z,3.72
2024-02-28T19:45:40.718Z,3.88
2024-02-28T19:48:07.620Z,4.03
2024-02-28T19:50:34.020Z,4.03
2024-02-28T19:53:00.671Z,4.00
2024-02-28T19:55:27.043Z,4.05
2024-02-28T19:57:53.456Z,4.47
2024-02-28T20:00:19.982Z,3.80
2024-02-28T20:02:46.306Z,4.30
2024-02-28T20:05:12.714Z,4.20
2024-02-28T20:07:39.267Z,3.88
2024-02-28T20:10:06.637Z,3.67
2024-02-28T20:12:33.063Z,3.67
2024-02-28T20:15:00.455Z,3.50
2024-02-28T20:17:26.917Z,4.15
2024-02-28T20:19:53.357Z,3.28
2024-02-28T20:22:20.691Z,3.38
2024-02-28T20:24:47.209Z,3.88
2024-02-28T20:27:13.633Z,3.47
2024-02-28T20:29:40.316Z,3.58
2024-02-28T20:32:07.416Z,3.30
2024-02-28T20:34:35.976Z,3.90
2024-02-28T20:37:06.272Z,3.50
2024-02-28T20:39:32.771Z,3.58
2024-02-28T20:41:59.164Z,3.10
2024-02-28T20:44:27.733Z,3.67
2024-02-28T20:46:54.092Z,3.58
2024-02-28T20:49:20.415Z,3.70
2024-02-28T20:51:46.806Z,3.90
2024-02-28T20:54:13.154Z,3.70
2024-02-28T20:56:40.230Z,3.30
2024-02-28T20:59:06.801Z,3.10
2024-02-28T21:01:33.285Z,3.65
2024-02-28T21:04:00.381Z,3.28
2024-02-28T21:06:27.953Z,3.33
2024-02-28T21:08:56.522Z,2.72
2024-02-28T21:11:25.925Z,3.40
2024-02-28T21:13:54.817Z,3.20
2024-02-28T21:16:22.127Z,3.05
2024-02-28T21:18:51.801Z,2.83
2024-02-28T21:21:19.076Z,3.13
2024-02-28T21:23:45.405Z,3.08
2024-02-28T21:26:11.818Z,3.03
2024-02-28T21:28:38.206Z,3.25
2024-02-28T21:31:07.866Z,3.35
2024-02-28T21:33:34.737Z,2.50
2024-02-28T21:36:01.507Z,2.80
2024-02-28T21:38:27.874Z,2.83
2024-02-28T21:40:54.241Z,2.67
2024-02-28T21:43:20.610Z,2.70
2024-02-28T21:45:47.081Z,2.65
2024-02-28T21:48:15.502Z,3.05
2024-02-28T21:50:43.754Z,3.03
2024-02-28T21:53:10.364Z,2.83
2024-02-28T21:55:37.202Z,2.60
2024-02-28T21:58:06.059Z,2.90
2024-02-28T22:00:32.568Z,2.72
2024-02-28T22:02:58.997Z,3.20
2024-02-28T22:05:25.387Z,2.50
2024-02-28T22:07:51.969Z,2.97
2024-02-28T22:10:18.432Z,2.88
2024-02-28T22:12:45.167Z,3.05
2024-02-28T22:15:11.828Z,3.10
2024-02-28T22:17:38.240Z,2.97
2024-02-28T22:20:07.752Z,3.00
2024-02-28T22:22:34.162Z,3.38
2024-02-28T22:25:00.605Z,2.92
2024-02-28T22:27:27.086Z,2.65
2024-02-28T22:29:54.003Z,2.88
2024-02-28T22:32:21.219Z,2.78
2024-02-28T22:34:47.567Z,3.17
2024-02-28T22:37:14.284Z,3.13
2024-02-28T22:39:40.688Z,3.22
2024-02-28T22:42:07.086Z,3.00
2024-02-28T22:44:33.437Z,3.05
2024-02-28T22:46:59.860Z,2.85
2024-02-28T22:49:26.404Z,2.80
2024-02-28T22:51:52.992Z,2.78
2024-02-28T22:54:19.569Z,2.90
2024-02-28T22:56:46.729Z,3.30
2024-02-28T22:59:13.154Z,2.85
2024-02-28T23:01:40.923Z,3.13
2024-02-28T23:04:07.685Z,3.22
2024-02-28T23:06:34.111Z,2.70
2024-02-28T23:09:00.881Z,3.28
2024-02-28T23:11:27.897Z,3.50
2024-02-28T23:13:54.269Z,3.30
2024-02-28T23:16:20.593Z,3.00
2024-02-28T23:18:47.047Z,3.30
2024-02-28T23:21:13.380Z,3.05
2024-02-28T23:23:39.741Z,3.20
2024-02-28T23:26:06.021Z,3.28
2024-02-28T23:28:32.348Z,3.53
2024-02-28T23:30:58.783Z,2.92
2024-02-28T23:33:25.204Z,2.85
2024-02-28T23:35:51.647Z,2.80
2024-02-28T23:38:18.228Z,2.85
2024-02-28T23:40:45.245Z,2.95
2024-02-28T23:43:11.643Z,2.72
2024-02-28T23:45:38.119Z,2.90
2024-02-28T23:48:07.250Z,3.58
2024-02-28T23:50:33.661Z,3.28
2024-02-28T23:53:00.225Z,2.70
2024-02-28T23:55:26.580Z,2.80
2024-02-28T23:57:53.144Z,3.60
